createdAt,value
2022-09-16T00:00:57.388Z,60.05
2022-09-16T00:02:12.899Z,59.15
2022-09-16T00:03:17.794Z,58.08
2022-09-16T00:04:19.670Z,57.83
2022-09-16T00:05:22.088Z,58.49
2022-09-16T00:06:27.423Z,59.37
2022-09-16T00:07:30.333Z,60.81
2022-09-16T00:08:32.265Z,61.41
2022-09-16T00:09:34.163Z,62.58
2022-09-16T00:10:36.157Z,64.31
2022-09-16T00:11:37.871Z,65.08
2022-09-16T00:12:40.592Z,64.67
2022-09-16T00:13:42.342Z,63.66
2022-09-16T00:14:44.129Z,62.61
2022-09-16T00:15:49.182Z,61.51
2022-09-16T00:16:50.852Z,60.65
2022-09-16T00:17:52.613Z,60.18
2022-09-16T00:18:59.873Z,59.39
2022-09-16T00:20:01.905Z,58.24
2022-09-16T00:21:09.225Z,57.79
2022-09-16T00:22:10.989Z,58.37
2022-09-16T00:23:12.683Z,59.15
2022-09-16T00:24:16.314Z,60.09
2022-09-16T00:25:18.204Z,61.35
2022-09-16T00:26:20.062Z,62.35
2022-09-16T00:27:21.751Z,63.78
2022-09-16T00:28:24.736Z,65.29
2022-09-16T00:29:26.577Z,65.40
2022-09-16T00:30:28.207Z,64.88
2022-09-16T00:31:29.950Z,63.91
2022-09-16T00:32:31.869Z,62.75
2022-09-16T00:33:33.552Z,61.88
2022-09-16T00:34:35.252Z,60.98
2022-09-16T00:35:36.886Z,60.29
2022-09-16T00:36:38.523Z,59.75
2022-09-16T00:37:40.145Z,58.95
2022-09-16T00:38:42.625Z,57.98
2022-09-16T00:39:44.564Z,57.93
2022-09-16T00:40:49.587Z,58.62
2022-09-16T00:41:51.407Z,59.76
2022-09-16T00:42:53.081Z,60.44
2022-09-16T00:44:01.893Z,61.52
2022-09-16T00:45:14.153Z,62.28
2022-09-16T00:46:20.659Z,64.44
2022-09-16T00:47:47.334Z,65.82
2022-09-16T00:48:50.317Z,65.49
2022-09-16T00:49:59.384Z,64.57
2022-09-16T00:51:08.028Z,63.73
2022-09-16T00:52:10.391Z,62.49
2022-09-16T00:53:23.120Z,61.63
2022-09-16T00:54:26.857Z,60.92
2022-09-16T00:55:35.465Z,60.31
2022-09-16T00:56:43.290Z,59.80
2022-09-16T00:57:46.708Z,59.29
2022-09-16T00:58:55.227Z,58.27
2022-09-16T00:59:58.503Z,58.00
2022-09-16T01:01:01.112Z,58.23
2022-09-16T01:02:15.981Z,59.23
2022-09-16T01:03:18.974Z,61.03
2022-09-16T01:04:35.310Z,61.97
2022-09-16T01:05:38.749Z,63.20
2022-09-16T01:06:40.815Z,65.15
2022-09-16T01:07:45.959Z,65.39
2022-09-16T01:08:50.134Z,65.01
2022-09-16T01:09:51.795Z,63.99
2022-09-16T01:10:53.568Z,62.93
2022-09-16T01:11:55.283Z,62.14
2022-09-16T01:13:03.454Z,61.36
2022-09-16T01:14:25.167Z,60.49
2022-09-16T01:15:33.982Z,59.91
2022-09-16T01:16:45.049Z,59.44
2022-09-16T01:18:05.210Z,58.37
2022-09-16T01:19:20.824Z,57.99
2022-09-16T01:21:01.887Z,58.65
2022-09-16T01:22:20.724Z,60.57
2022-09-16T01:23:37.188Z,62.26
2022-09-16T01:24:54.457Z,63.97
2022-09-16T01:26:28.993Z,64.97
2022-09-16T01:28:07.691Z,64.11
2022-09-16T01:29:35.878Z,62.78
2022-09-16T01:30:41.090Z,61.45
2022-09-16T01:32:13.087Z,60.96
2022-09-16T01:33:31.603Z,60.18
2022-09-16T01:35:04.752Z,59.65
2022-09-16T01:36:15.410Z,58.62
2022-09-16T01:37:46.102Z,57.86
2022-09-16T01:39:03.233Z,58.71
2022-09-16T01:40:20.149Z,59.50
2022-09-16T01:42:09.579Z,61.01
2022-09-16T01:43:13.818Z,64.21
2022-09-16T01:44:28.926Z,65.31
2022-09-16T01:45:38.252Z,65.23
2022-09-16T01:46:48.357Z,64.39
2022-09-16T01:48:05.527Z,63.14
2022-09-16T01:49:20.375Z,62.05
2022-09-16T01:50:29.387Z,61.19
2022-09-16T01:51:49.602Z,60.62
2022-09-16T01:53:00.115Z,59.77
2022-09-16T01:54:15.921Z,59.25
2022-09-16T01:55:32.583Z,58.32
2022-09-16T01:56:50.305Z,58.37
2022-09-16T01:58:16.963Z,59.30
2022-09-16T01:59:41.543Z,61.20
2022-09-16T02:00:47.442Z,63.03
2022-09-16T02:02:04.954Z,64.56
2022-09-16T02:03:32.338Z,64.85
2022-09-16T02:04:42.613Z,63.93
2022-09-16T02:06:06.691Z,62.89
2022-09-16T02:07:12.980Z,61.74
2022-09-16T02:08:22.719Z,61.03
2022-09-16T02:09:34.898Z,60.22
2022-09-16T02:10:50.968Z,59.78
2022-09-16T02:11:58.551Z,59.08
2022-09-16T02:13:08.924Z,58.01
2022-09-16T02:14:20.030Z,57.94
2022-09-16T02:15:26.449Z,58.96
2022-09-16T02:16:55.095Z,60.05
2022-09-16T02:18:05.129Z,62.09
2022-09-16T02:19:15.720Z,63.50
2022-09-16T02:20:25.837Z,64.90
2022-09-16T02:21:33.382Z,64.93
2022-09-16T02:22:41.728Z,64.17
2022-09-16T02:23:59.519Z,63.21
2022-09-16T02:25:05.395Z,62.01
2022-09-16T02:26:12.479Z,61.27
2022-09-16T02:27:21.699Z,60.76
2022-09-16T02:28:30.100Z,60.21
2022-09-16T02:29:46.768Z,59.64
2022-09-16T02:30:55.465Z,58.66
2022-09-16T02:32:02.505Z,57.99
2022-09-16T02:33:09.699Z,58.53
2022-09-16T02:34:17.559Z,59.39
2022-09-16T02:35:22.028Z,60.87
2022-09-16T02:36:27.173Z,61.89
2022-09-16T02:37:50.235Z,63.31
2022-09-16T02:39:00.122Z,65.37
2022-09-16T02:40:10.542Z,65.39
2022-09-16T02:41:14.873Z,64.59
2022-09-16T02:42:17.521Z,63.68
2022-09-16T02:43:19.889Z,62.59
2022-09-16T02:44:21.766Z,61.96
2022-09-16T02:45:47.940Z,61.17
2022-09-16T02:47:04.530Z,60.25
2022-09-16T02:48:29.161Z,59.64
2022-09-16T02:49:54.111Z,59.38
2022-09-16T02:51:29.130Z,58.22
2022-09-16T02:52:47.043Z,58.60
2022-09-16T02:54:22.911Z,59.60
2022-09-16T02:55:54.805Z,60.96
2022-09-16T02:56:57.482Z,63.99
2022-09-16T02:57:59.338Z,65.37
2022-09-16T02:59:04.014Z,65.41
2022-09-16T03:00:06.900Z,64.77
2022-09-16T03:01:13.666Z,63.93
2022-09-16T03:02:15.452Z,62.98
2022-09-16T03:03:18.421Z,61.95
2022-09-16T03:04:20.547Z,61.25
2022-09-16T03:05:30.287Z,60.58
2022-09-16T03:06:36.053Z,60.21
2022-09-16T03:07:41.396Z,59.74
2022-09-16T03:08:45.247Z,59.53
2022-09-16T03:09:49.912Z,58.67
2022-09-16T03:10:53.880Z,58.04
2022-09-16T03:12:12.394Z,58.63
2022-09-16T03:13:36.524Z,60.00
2022-09-16T03:14:59.453Z,61.08
2022-09-16T03:16:17.338Z,63.08
2022-09-16T03:17:34.367Z,65.03
2022-09-16T03:18:58.354Z,65.26
2022-09-16T03:20:12.550Z,64.49
2022-09-16T03:21:23.069Z,63.37
2022-09-16T03:22:47.438Z,62.45
2022-09-16T03:23:56.272Z,61.51
2022-09-16T03:25:19.431Z,61.11
2022-09-16T03:26:43.202Z,60.42
2022-09-16T03:27:52.703Z,59.88
2022-09-16T03:29:12.557Z,59.58
2022-09-16T03:30:14.407Z,58.70
2022-09-16T03:31:28.899Z,58.13
2022-09-16T03:32:45.202Z,58.64
2022-09-16T03:34:07.853Z,60.28
2022-09-16T03:35:28.031Z,61.87
2022-09-16T03:36:44.563Z,63.29
2022-09-16T03:37:48.217Z,65.12
2022-09-16T03:38:51.565Z,65.55
2022-09-16T03:39:57.663Z,64.90
2022-09-16T03:40:59.474Z,64.01
2022-09-16T03:42:08.124Z,63.01
2022-09-16T03:43:15.998Z,62.01
2022-09-16T03:44:18.329Z,61.27
2022-09-16T03:45:22.079Z,60.68
2022-09-16T03:46:25.219Z,60.28
2022-09-16T03:47:26.868Z,59.89
2022-09-16T03:48:28.548Z,59.51
2022-09-16T03:49:30.469Z,59.01
2022-09-16T03:50:32.161Z,58.21
2022-09-16T03:51:33.809Z,58.44
2022-09-16T03:52:35.482Z,59.14
2022-09-16T03:53:37.085Z,60.03
2022-09-16T03:54:39.087Z,61.28
2022-09-16T03:55:40.829Z,62.69
2022-09-16T03:56:42.422Z,64.50
2022-09-16T03:57:44.073Z,65.19
2022-09-16T03:58:48.136Z,65.20
2022-09-16T03:59:49.765Z,64.59
2022-09-16T04:00:51.959Z,63.60
2022-09-16T04:01:54.039Z,62.69
2022-09-16T04:02:56.306Z,62.12
2022-09-16T04:03:57.963Z,61.25
2022-09-16T04:04:59.797Z,60.75
2022-09-16T04:06:01.634Z,60.34
2022-09-16T04:07:03.530Z,59.85
2022-09-16T04:08:05.128Z,59.49
2022-09-16T04:09:08.320Z,58.89
2022-09-16T04:10:12.455Z,57.97
2022-09-16T04:11:14.323Z,58.33
2022-09-16T04:12:16.031Z,59.03
2022-09-16T04:13:17.639Z,60.01
2022-09-16T04:14:20.285Z,61.28
2022-09-16T04:15:22.246Z,62.39
2022-09-16T04:16:24.099Z,64.22
2022-09-16T04:17:25.790Z,65.40
2022-09-16T04:18:27.905Z,65.42
2022-09-16T04:19:29.621Z,64.72
2022-09-16T04:20:31.234Z,63.65
2022-09-16T04:21:33.509Z,62.84
2022-09-16T04:22:35.263Z,61.89
2022-09-16T04:23:36.886Z,61.28
2022-09-16T04:24:38.495Z,60.64
2022-09-16T04:25:41.760Z,60.13
2022-09-16T04:26:43.762Z,59.76
2022-09-16T04:27:45.341Z,59.17
2022-09-16T04:28:47.994Z,58.36
2022-09-16T04:29:49.866Z,58.09
2022-09-16T04:30:52.167Z,58.79
2022-09-16T04:31:55.880Z,59.65
2022-09-16T04:32:57.535Z,60.86
2022-09-16T04:34:02.150Z,62.47
2022-09-16T04:35:03.935Z,64.45
2022-09-16T04:36:13.854Z,65.52
2022-09-16T04:37:15.767Z,65.21
2022-09-16T04:38:17.394Z,64.50
2022-09-16T04:39:19.367Z,63.55
2022-09-16T04:40:21.063Z,62.65
2022-09-16T04:41:27.098Z,61.89
2022-09-16T04:42:29.015Z,61.17
2022-09-16T04:43:31.121Z,60.67
2022-09-16T04:44:32.771Z,60.27
2022-09-16T04:45:34.363Z,59.84
2022-09-16T04:46:36.082Z,59.44
2022-09-16T04:47:37.807Z,58.68
2022-09-16T04:48:39.659Z,58.01
2022-09-16T04:49:41.338Z,58.39
2022-09-16T04:50:43.071Z,59.27
2022-09-16T04:51:44.698Z,60.35
2022-09-16T04:52:46.457Z,60.98
2022-09-16T04:53:49.501Z,62.49
2022-09-16T04:54:51.211Z,63.91
2022-09-16T04:55:52.854Z,65.10
2022-09-16T04:56:54.498Z,64.94
2022-09-16T04:57:56.190Z,64.27
2022-09-16T04:59:03.590Z,63.41
2022-09-16T05:00:05.879Z,62.62
2022-09-16T05:01:12.821Z,61.65
2022-09-16T05:02:14.551Z,60.96
2022-09-16T05:03:16.871Z,60.54
2022-09-16T05:04:18.661Z,60.07
2022-09-16T05:05:21.452Z,59.82
2022-09-16T05:06:26.282Z,59.54
2022-09-16T05:07:29.649Z,58.99
2022-09-16T05:08:33.148Z,58.05
2022-09-16T05:09:35.394Z,58.15
2022-09-16T05:10:37.002Z,58.96
2022-09-16T05:11:40.177Z,59.94
2022-09-16T05:12:41.789Z,61.49
2022-09-16T05:13:43.991Z,62.39
2022-09-16T05:14:45.586Z,63.48
2022-09-16T05:15:50.946Z,65.15
2022-09-16T05:16:53.799Z,65.33
2022-09-16T05:17:55.456Z,64.68
2022-09-16T05:19:00.166Z,63.87
2022-09-16T05:20:02.112Z,62.50
2022-09-16T05:21:06.666Z,61.74
2022-09-16T05:22:08.293Z,61.30
2022-09-16T05:23:10.062Z,60.53
2022-09-16T05:24:13.610Z,60.11
2022-09-16T05:25:15.352Z,59.64
2022-09-16T05:26:23.273Z,58.94
2022-09-16T05:27:27.940Z,58.12
2022-09-16T05:28:29.854Z,58.14
2022-09-16T05:29:31.472Z,58.93
2022-09-16T05:30:33.536Z,60.32
2022-09-16T05:31:38.962Z,61.50
2022-09-16T05:32:40.611Z,62.63
2022-09-16T05:33:44.901Z,64.46
2022-09-16T05:34:46.678Z,65.35
2022-09-16T05:35:48.401Z,65.09
2022-09-16T05:36:53.823Z,64.30
2022-09-16T05:37:55.459Z,63.20
2022-09-16T05:39:22.051Z,62.40
2022-09-16T05:40:19.823Z,61.40
2022-09-16T05:41:21.523Z,60.75
2022-09-16T05:42:23.303Z,60.09
2022-09-16T05:43:25.089Z,59.61
2022-09-16T05:44:28.751Z,59.24
2022-09-16T05:45:32.574Z,58.32
2022-09-16T05:46:35.036Z,58.06
2022-09-16T05:47:36.696Z,58.53
2022-09-16T05:48:38.278Z,59.04
2022-09-16T05:49:39.946Z,60.11
2022-09-16T05:50:41.601Z,61.36
2022-09-16T05:51:43.311Z,63.38
2022-09-16T05:52:44.943Z,64.60
2022-09-16T05:53:49.052Z,64.96
2022-09-16T05:54:51.083Z,64.44
2022-09-16T05:56:06.117Z,63.62
2022-09-16T05:57:07.714Z,62.41
2022-09-16T05:58:09.423Z,61.69
2022-09-16T05:59:12.482Z,60.56
2022-09-16T06:00:14.703Z,60.18
2022-09-16T06:01:19.567Z,59.54
2022-09-16T06:02:21.206Z,58.56
2022-09-16T06:03:22.865Z,58.07
2022-09-16T06:04:24.535Z,58.43
2022-09-16T06:05:26.144Z,59.42
2022-09-16T06:06:34.437Z,60.10
2022-09-16T06:07:36.037Z,61.55
2022-09-16T06:08:37.778Z,62.27
2022-09-16T06:09:39.370Z,63.91
2022-09-16T06:10:42.109Z,65.11
2022-09-16T06:11:47.375Z,65.27
2022-09-16T06:12:49.000Z,64.65
2022-09-16T06:13:56.137Z,63.53
2022-09-16T06:14:57.783Z,62.23
2022-09-16T06:16:00.570Z,61.25
2022-09-16T06:17:02.753Z,60.51
2022-09-16T06:18:06.543Z,59.79
2022-09-16T06:19:13.550Z,59.36
2022-09-16T06:20:16.137Z,57.93
2022-09-16T06:21:18.721Z,57.18
2022-09-16T06:22:20.334Z,57.37
2022-09-16T06:23:22.689Z,58.29
2022-09-16T06:24:24.439Z,59.32
2022-09-16T06:25:26.055Z,60.24
2022-09-16T06:26:28.450Z,61.20
2022-09-16T06:27:31.840Z,61.84
2022-09-16T06:28:33.953Z,63.44
2022-09-16T06:29:35.600Z,64.69
2022-09-16T06:30:38.279Z,64.41
2022-09-16T06:31:40.579Z,63.80
2022-09-16T06:32:42.241Z,62.78
2022-09-16T06:33:44.593Z,61.55
2022-09-16T06:34:46.511Z,60.78
2022-09-16T06:35:48.166Z,59.85
2022-09-16T06:36:49.967Z,58.67
2022-09-16T06:37:54.041Z,57.40
2022-09-16T06:38:55.876Z,57.25
2022-09-16T06:39:57.549Z,57.58
2022-09-16T06:41:00.930Z,58.56
2022-09-16T06:42:02.814Z,60.33
2022-09-16T06:43:12.206Z,60.73
2022-09-16T06:44:13.972Z,61.40
2022-09-16T06:45:15.577Z,62.23
2022-09-16T06:46:21.064Z,62.85
2022-09-16T06:47:22.788Z,63.44
2022-09-16T06:48:24.417Z,63.41
2022-09-16T06:49:26.375Z,62.50
2022-09-16T06:50:28.075Z,61.64
2022-09-16T06:51:31.387Z,60.59
2022-09-16T06:52:33.190Z,59.35
2022-09-16T06:53:34.935Z,57.61
2022-09-16T06:54:36.526Z,56.67
2022-09-16T06:55:38.166Z,56.60
2022-09-16T06:56:41.477Z,56.93
2022-09-16T06:57:43.427Z,57.66
2022-09-16T06:58:51.761Z,58.90
2022-09-16T06:59:53.410Z,59.17
2022-09-16T07:00:55.709Z,59.45
2022-09-16T07:01:57.469Z,59.98
2022-09-16T07:03:02.266Z,61.06
2022-09-16T07:04:10.961Z,62.10
2022-09-16T07:05:13.075Z,63.53
2022-09-16T07:06:16.680Z,64.12
2022-09-16T07:07:18.510Z,63.89
2022-09-16T07:08:20.182Z,62.55
2022-09-16T07:09:22.279Z,60.82
2022-09-16T07:10:25.224Z,60.21
2022-09-16T07:11:26.973Z,58.70
2022-09-16T07:12:28.993Z,57.35
2022-09-16T07:13:31.318Z,56.81
2022-09-16T07:14:32.943Z,57.11
2022-09-16T07:15:39.253Z,57.78
2022-09-16T07:16:52.803Z,58.71
2022-09-16T07:17:55.347Z,59.50
2022-09-16T07:19:01.136Z,59.91
2022-09-16T07:20:03.373Z,60.33
2022-09-16T07:21:07.790Z,60.99
2022-09-16T07:22:11.420Z,61.92
2022-09-16T07:23:13.038Z,62.71
2022-09-16T07:24:15.431Z,63.59
2022-09-16T07:25:17.315Z,63.81
2022-09-16T07:26:22.124Z,62.96
2022-09-16T07:27:23.794Z,61.62
2022-09-16T07:28:25.463Z,59.96
2022-09-16T07:29:27.581Z,58.92
2022-09-16T07:30:30.983Z,56.86
2022-09-16T07:31:36.988Z,55.87
2022-09-16T07:32:38.615Z,55.79
2022-09-16T07:33:47.672Z,56.38
2022-09-16T07:34:49.379Z,57.11
2022-09-16T07:35:51.211Z,57.67
2022-09-16T07:36:52.909Z,58.55
2022-09-16T07:37:54.850Z,59.23
2022-09-16T07:38:58.914Z,59.71
2022-09-16T07:40:00.583Z,60.20
2022-09-16T07:41:07.865Z,60.91
2022-09-16T07:42:09.764Z,61.20
2022-09-16T07:43:11.926Z,61.47
2022-09-16T07:44:16.313Z,61.70
2022-09-16T07:45:17.962Z,62.27
2022-09-16T07:46:20.818Z,62.95
2022-09-16T07:47:23.083Z,63.70
2022-09-16T07:48:25.242Z,63.96
2022-09-16T07:49:26.979Z,62.96
2022-09-16T07:50:28.627Z,61.79
2022-09-16T07:51:31.618Z,60.22
2022-09-16T07:52:33.241Z,58.72
2022-09-16T07:53:35.446Z,56.83
2022-09-16T07:54:37.352Z,56.02
2022-09-16T07:55:39.033Z,56.26
2022-09-16T07:56:42.551Z,56.75
2022-09-16T07:57:44.187Z,57.24
2022-09-16T07:58:47.469Z,57.98
2022-09-16T07:59:49.186Z,58.67
2022-09-16T08:00:50.893Z,59.14
2022-09-16T08:01:52.876Z,59.59
2022-09-16T08:02:57.248Z,60.07
2022-09-16T08:04:00.475Z,60.56
2022-09-16T08:05:02.200Z,61.09
2022-09-16T08:06:25.126Z,61.23
2022-09-16T08:07:26.817Z,61.65
2022-09-16T08:08:28.455Z,61.85
2022-09-16T08:09:41.163Z,62.03
2022-09-16T08:10:59.483Z,62.35
2022-09-16T08:12:04.550Z,62.95
2022-09-16T08:13:07.810Z,64.01
2022-09-16T08:14:09.403Z,63.96
2022-09-16T08:15:11.265Z,62.49
2022-09-16T08:16:19.379Z,61.39
2022-09-16T08:17:21.513Z,60.10
2022-09-16T08:18:23.130Z,58.76
2022-09-16T08:19:25.038Z,56.47
2022-09-16T08:20:28.220Z,55.76
2022-09-16T08:21:30.216Z,55.71
2022-09-16T08:22:32.025Z,56.21
2022-09-16T08:23:34.946Z,56.76
2022-09-16T08:24:36.662Z,57.52
2022-09-16T08:25:38.289Z,57.61
2022-09-16T08:26:40.386Z,58.02
2022-09-16T08:27:42.025Z,58.55
2022-09-16T08:29:04.931Z,58.90
2022-09-16T08:30:10.218Z,59.04
2022-09-16T08:31:12.661Z,59.25
2022-09-16T08:32:14.693Z,59.42
2022-09-16T08:33:20.998Z,59.66
2022-09-16T08:34:22.769Z,60.13
2022-09-16T08:35:25.598Z,60.74
2022-09-16T08:36:27.447Z,61.20
2022-09-16T08:37:29.128Z,61.51
2022-09-16T08:38:32.513Z,61.29
2022-09-16T08:39:34.477Z,60.96
2022-09-16T08:40:37.216Z,61.10
2022-09-16T08:41:52.607Z,61.50
2022-09-16T08:43:17.791Z,61.82
2022-09-16T08:44:38.816Z,62.29
2022-09-16T08:45:49.158Z,63.15
2022-09-16T08:46:59.477Z,63.21
2022-09-16T08:48:13.150Z,63.00
2022-09-16T08:49:44.024Z,61.26
2022-09-16T08:50:51.462Z,57.26
2022-09-16T08:51:55.562Z,55.56
2022-09-16T08:53:03.148Z,55.47
2022-09-16T08:54:27.349Z,55.93
2022-09-16T08:55:46.707Z,57.11
2022-09-16T08:56:49.737Z,58.22
2022-09-16T08:58:11.613Z,58.62
2022-09-16T08:59:20.402Z,59.33
2022-09-16T09:00:22.117Z,59.17
2022-09-16T09:01:29.895Z,59.31
2022-09-16T09:02:51.204Z,59.94
2022-09-16T09:03:54.208Z,59.95
2022-09-16T09:04:56.051Z,59.95
2022-09-16T09:06:00.154Z,60.14
2022-09-16T09:07:29.066Z,59.97
2022-09-16T09:08:44.409Z,59.89
2022-09-16T09:10:24.752Z,59.99
2022-09-16T09:11:43.726Z,60.31
2022-09-16T09:13:47.543Z,60.56
2022-09-16T09:15:11.946Z,60.55
2022-09-16T09:16:41.085Z,60.75
2022-09-16T09:18:00.501Z,60.33
2022-09-16T09:19:25.690Z,60.02
2022-09-16T09:20:30.045Z,59.82
2022-09-16T09:22:00.250Z,59.97
2022-09-16T09:23:29.759Z,60.27
2022-09-16T09:24:48.314Z,60.36
2022-09-16T09:26:03.777Z,60.27
2022-09-16T09:27:22.225Z,60.31
2022-09-16T09:29:01.054Z,60.33
2022-09-16T09:30:24.345Z,60.62
2022-09-16T09:31:34.838Z,60.96
2022-09-16T09:32:56.548Z,61.05
2022-09-16T09:34:29.232Z,61.22
2022-09-16T09:35:51.428Z,61.74
2022-09-16T09:37:05.867Z,62.16
2022-09-16T09:38:35.984Z,62.66
2022-09-16T09:39:54.052Z,62.58
2022-09-16T09:41:11.709Z,63.17
2022-09-16T09:42:29.637Z,61.49
2022-09-16T09:44:52.158Z,54.97
2022-09-16T09:46:04.725Z,54.42
2022-09-16T09:47:19.984Z,54.62
2022-09-16T09:48:45.174Z,55.19
2022-09-16T09:49:51.881Z,55.17
2022-09-16T09:50:53.885Z,55.78
2022-09-16T09:52:04.373Z,56.36
2022-09-16T09:53:12.263Z,56.63
2022-09-16T09:54:22.797Z,55.85
2022-09-16T09:55:31.482Z,55.24
2022-09-16T09:56:45.988Z,55.08
2022-09-16T09:58:05.185Z,55.51
2022-09-16T09:59:24.932Z,56.30
2022-09-16T10:00:26.684Z,56.85
2022-09-16T10:01:28.556Z,57.07
2022-09-16T10:02:30.345Z,57.10
2022-09-16T10:03:32.531Z,57.28
2022-09-16T10:04:39.194Z,57.61
2022-09-16T10:05:41.685Z,57.42
2022-09-16T10:06:46.098Z,56.49
2022-09-16T10:07:49.566Z,56.05
2022-09-16T10:08:54.156Z,56.16
2022-09-16T10:10:14.382Z,56.07
2022-09-16T10:11:22.954Z,55.64
2022-09-16T10:12:31.355Z,55.79
2022-09-16T10:13:33.169Z,56.01
2022-09-16T10:14:37.917Z,56.09
2022-09-16T10:15:40.599Z,56.34
2022-09-16T10:16:50.809Z,56.52
2022-09-16T10:17:53.867Z,56.79
2022-09-16T10:19:16.981Z,57.00
2022-09-16T10:20:35.062Z,56.91
2022-09-16T10:21:47.705Z,57.36
2022-09-16T10:23:20.509Z,57.77
2022-09-16T10:24:32.969Z,57.82
2022-09-16T10:25:35.384Z,57.51
2022-09-16T10:26:41.142Z,56.62
2022-09-16T10:27:42.820Z,56.31
2022-09-16T10:29:23.262Z,56.35
2022-09-16T10:30:25.468Z,56.84
2022-09-16T10:31:35.327Z,56.51
2022-09-16T10:32:48.391Z,56.16
2022-09-16T10:33:50.403Z,55.76
2022-09-16T10:34:52.443Z,54.59
2022-09-16T10:36:00.809Z,53.62
2022-09-16T10:37:12.799Z,52.98
2022-09-16T10:38:22.260Z,52.69
2022-09-16T10:39:26.774Z,51.92
2022-09-16T10:40:29.171Z,50.74
2022-09-16T10:41:42.395Z,50.42
2022-09-16T10:42:48.107Z,51.47
2022-09-16T10:44:07.322Z,51.34
2022-09-16T10:45:20.158Z,52.52
2022-09-16T10:46:22.078Z,52.82
2022-09-16T10:47:28.203Z,52.58
2022-09-16T10:48:34.324Z,51.81
2022-09-16T10:49:46.187Z,51.23
2022-09-16T10:50:58.618Z,51.93
2022-09-16T10:52:22.939Z,52.33
2022-09-16T10:53:30.757Z,52.36
2022-09-16T10:54:32.461Z,52.26
2022-09-16T10:55:38.672Z,51.37
2022-09-16T10:56:49.601Z,51.20
2022-09-16T10:57:53.196Z,50.63
2022-09-16T10:59:12.325Z,50.79
2022-09-16T11:00:21.331Z,50.44
2022-09-16T11:01:57.917Z,51.20
2022-09-16T11:03:15.044Z,50.80
2022-09-16T11:04:31.419Z,50.62
2022-09-16T11:05:47.829Z,50.50
2022-09-16T11:06:55.224Z,49.83
2022-09-16T11:08:08.666Z,49.94
2022-09-16T11:09:25.595Z,49.44
2022-09-16T11:10:56.057Z,48.84
2022-09-16T11:12:33.600Z,48.40
2022-09-16T11:13:58.044Z,48.38
2022-09-16T11:15:28.053Z,48.23
2022-09-16T11:16:29.716Z,47.88
2022-09-16T11:18:19.897Z,47.47
2022-09-16T11:20:03.750Z,47.87
2022-09-16T11:21:40.600Z,48.39
2022-09-16T11:23:16.321Z,48.04
2022-09-16T11:24:27.266Z,48.21
2022-09-16T11:25:38.412Z,47.73
2022-09-16T11:26:56.193Z,47.80
2022-09-16T11:28:00.805Z,48.36
2022-09-16T11:29:29.139Z,48.25
2022-09-16T11:30:40.925Z,48.49
2022-09-16T11:31:51.355Z,48.05
2022-09-16T11:33:37.438Z,48.42
2022-09-16T11:35:02.560Z,48.88
2022-09-16T11:36:54.910Z,49.05
2022-09-16T11:38:08.319Z,49.25
2022-09-16T11:39:27.971Z,49.32
2022-09-16T11:40:55.139Z,50.09
2022-09-16T11:42:04.810Z,50.25
2022-09-16T11:43:47.720Z,50.30
2022-09-16T11:45:19.946Z,50.57
2022-09-16T11:46:55.713Z,51.16
2022-09-16T11:48:15.710Z,51.77
2022-09-16T11:49:45.127Z,52.22
2022-09-16T11:50:58.282Z,52.48
2022-09-16T11:52:06.309Z,52.65
2022-09-16T11:53:29.586Z,52.64
2022-09-16T11:54:59.113Z,52.59
2022-09-16T11:56:11.407Z,52.49
2022-09-16T11:57:24.774Z,52.46
2022-09-16T11:58:45.295Z,52.44
2022-09-16T12:00:00.328Z,52.66
2022-09-16T12:01:14.123Z,52.65
2022-09-16T12:02:40.088Z,52.96
2022-09-16T12:03:58.701Z,53.72
2022-09-16T12:05:13.823Z,54.21
2022-09-16T12:06:20.558Z,54.19
2022-09-16T12:07:57.245Z,54.06
2022-09-16T12:09:12.358Z,53.96
2022-09-16T12:10:31.117Z,53.81
2022-09-16T12:11:45.849Z,53.63
2022-09-16T12:13:00.766Z,53.83
2022-09-16T12:14:18.823Z,54.29
2022-09-16T12:15:30.078Z,54.77
2022-09-16T12:16:39.510Z,55.22
2022-09-16T12:17:52.438Z,55.24
2022-09-16T12:19:02.182Z,55.49
2022-09-16T12:20:16.533Z,55.64
2022-09-16T12:21:30.037Z,55.69
2022-09-16T12:22:43.201Z,55.72
2022-09-16T12:23:59.616Z,55.69
2022-09-16T12:25:08.913Z,55.42
2022-09-16T12:26:17.889Z,55.67
2022-09-16T12:27:37.750Z,56.00
2022-09-16T12:28:46.274Z,55.40
2022-09-16T12:30:00.509Z,55.36
2022-09-16T12:31:23.777Z,55.18
2022-09-16T12:32:50.706Z,54.93
2022-09-16T12:34:18.509Z,54.38
2022-09-16T12:36:43.868Z,55.00
2022-09-16T12:37:51.501Z,54.50
2022-09-16T12:38:53.298Z,53.64
2022-09-16T12:39:55.408Z,53.11
2022-09-16T12:41:00.519Z,53.17
2022-09-16T12:42:12.444Z,53.17
2022-09-16T12:43:31.982Z,53.26
2022-09-16T12:45:08.206Z,52.35
2022-09-16T12:46:34.801Z,50.43
2022-09-16T12:47:52.073Z,49.03
2022-09-16T12:49:15.455Z,48.52
2022-09-16T12:50:27.816Z,48.59
2022-09-16T12:52:04.010Z,46.97
2022-09-16T12:53:32.453Z,46.36
2022-09-16T12:55:08.508Z,45.96
2022-09-16T12:56:29.523Z,45.58
2022-09-16T12:57:55.991Z,45.07
2022-09-16T12:59:22.009Z,45.01
2022-09-16T13:00:30.941Z,44.59
2022-09-16T13:01:35.408Z,44.27
2022-09-16T13:02:46.722Z,43.63
2022-09-16T13:04:03.316Z,43.81
2022-09-16T13:05:22.853Z,43.99
2022-09-16T13:06:34.356Z,43.32
2022-09-16T13:07:36.933Z,43.72
2022-09-16T13:08:38.782Z,43.44
2022-09-16T13:09:41.018Z,43.36
2022-09-16T13:11:19.288Z,43.05
2022-09-16T13:13:50.263Z,43.52
2022-09-16T13:14:56.912Z,42.76
2022-09-16T13:16:02.124Z,42.47
2022-09-16T13:17:04.196Z,42.08
2022-09-16T13:18:17.708Z,42.02
2022-09-16T13:19:35.247Z,42.59
2022-09-16T13:20:41.949Z,41.89
2022-09-16T13:21:45.695Z,41.95
2022-09-16T13:23:00.253Z,42.13
2022-09-16T13:24:14.919Z,42.92
2022-09-16T13:25:35.030Z,43.49
2022-09-16T13:26:45.425Z,43.97
2022-09-16T13:28:02.038Z,44.50
2022-09-16T13:29:03.874Z,44.59
2022-09-16T13:30:08.238Z,44.84
2022-09-16T13:31:18.679Z,44.88
2022-09-16T13:32:38.499Z,45.33
2022-09-16T13:34:01.886Z,45.48
2022-09-16T13:35:18.714Z,45.69
2022-09-16T13:36:20.476Z,44.41
2022-09-16T13:37:28.412Z,44.47
2022-09-16T13:38:39.221Z,44.80
2022-09-16T13:39:41.144Z,44.59
2022-09-16T13:41:00.779Z,44.33
2022-09-16T13:42:20.737Z,42.87
2022-09-16T13:43:29.390Z,43.01
2022-09-16T13:44:36.934Z,42.64
2022-09-16T13:45:42.750Z,41.43
2022-09-16T13:46:44.468Z,42.21
2022-09-16T13:47:49.736Z,42.58
2022-09-16T13:49:03.272Z,42.22
2022-09-16T13:50:25.497Z,42.30
2022-09-16T13:51:27.214Z,41.23
2022-09-16T13:52:36.054Z,40.29
2022-09-16T13:53:45.901Z,40.15
2022-09-16T13:56:37.507Z,40.30
2022-09-16T13:57:58.571Z,40.20
2022-09-16T13:59:27.711Z,40.05
2022-09-16T14:00:58.723Z,40.56
2022-09-16T14:02:37.477Z,40.91
2022-09-16T14:03:53.028Z,40.51
2022-09-16T14:05:14.610Z,39.77
2022-09-16T14:06:47.754Z,39.26
2022-09-16T14:08:27.017Z,38.91
2022-09-16T14:09:46.741Z,39.44
2022-09-16T14:11:09.085Z,40.12
2022-09-16T14:12:41.671Z,40.98
2022-09-16T14:14:04.813Z,41.23
2022-09-16T14:15:08.784Z,41.40
2022-09-16T14:16:22.979Z,41.74
2022-09-16T14:17:31.830Z,42.26
2022-09-16T14:18:35.287Z,42.85
2022-09-16T14:19:42.430Z,43.36
2022-09-16T14:21:04.915Z,44.06
2022-09-16T14:22:28.096Z,44.66
2022-09-16T14:23:32.546Z,45.24
2022-09-16T14:24:40.322Z,43.83
2022-09-16T14:25:42.055Z,43.99
2022-09-16T14:26:57.415Z,44.37
2022-09-16T14:28:19.009Z,44.82
2022-09-16T14:29:22.386Z,45.71
2022-09-16T14:30:24.563Z,46.79
2022-09-16T14:31:31.333Z,47.58
2022-09-16T14:32:36.734Z,48.31
2022-09-16T14:33:46.237Z,48.59
2022-09-16T14:34:52.651Z,48.89
2022-09-16T14:35:56.782Z,48.67
2022-09-16T14:36:58.990Z,48.30
2022-09-16T14:38:08.439Z,47.52
2022-09-16T14:39:22.309Z,47.87
2022-09-16T14:40:27.401Z,48.14
2022-09-16T14:41:37.263Z,48.13
2022-09-16T14:42:52.743Z,48.06
2022-09-16T14:44:00.368Z,48.08
2022-09-16T14:45:04.820Z,48.23
2022-09-16T14:46:08.457Z,48.29
2022-09-16T14:47:47.336Z,48.51
2022-09-16T14:48:50.587Z,48.86
2022-09-16T14:49:57.926Z,49.07
2022-09-16T14:51:02.560Z,49.39
2022-09-16T14:52:04.386Z,49.58
2022-09-16T14:53:26.864Z,49.96
2022-09-16T14:54:44.334Z,50.49
2022-09-16T14:55:49.854Z,50.71
2022-09-16T14:57:14.729Z,50.88
2022-09-16T14:58:17.491Z,51.04
2022-09-16T14:59:20.753Z,51.30
2022-09-16T15:00:24.150Z,51.22
2022-09-16T15:01:28.206Z,51.30
2022-09-16T15:02:54.339Z,51.35